King, WI (54946)

4:28 PM CST on November 27, 2014 (GMT -0600)
APRSWXNET Waupaca WI US | Change Station
CLOSE
Current Station
Personal Weather Station
Location: King, WI
Elevation: 889 ft
Nearby Weather Stations
Active Advisory: Special Statement

Elev 889 ft 44.34 °N, 89.12 °W | Updated 28 minutes ago

Clear
Clear
14 °F
Feels Like 14 °F
N
0
Wind Variable Wind from NW
Gusts 4.0 mph

Today
High -- | Low -- °F
--% Chance of Precip.
Yesterday
High -- | Low -- °F
Precip. -- in
7:07 AM 4:20 PM
Waxing Crescent, 33% visible
Pressure 30.38 in
Visibility 10.0 miles
Clouds Clear
Windchill 14 °F
Dew Point 8 °F
Humidity 75%
Rainfall 0.00 in
Snow Depth Not available.
UV 0 out of 12
Pollen .10 out of 12
Air Quality Not available.
Flu Activity Not available.
METAR KPCZ 272215Z AUTO 28006KT 10SM CLR M09/M15 A3038 RMK AO2 T10891151

More Conditions Fewer Conditions

Pressure 30.38 in
Visibility 10.0 miles
Clouds Clear
Windchill 14 °F
Dew Point 8 °F
Humidity 75%
Rainfall 0.00 in
Snow Depth Not available.
UV 0 out of 12
Pollen .10 out of 12
Air Quality Not available.
Flu Activity Not available.
METAR KPCZ 272215Z AUTO 28006KT 10SM CLR M09/M15 A3038 RMK AO2 T10891151

More Conditions Fewer Conditions

10-Day Weather Forecast

Almanac

Astronomy

Nov. 27, 2014 Rise Set
Actual Time
Civil Twilight
Nautical Twilight
Astronomical Twilight
Moon
Length of Visible Light
Length of Day
Tomorrow will be .
, % of the Moon is Illuminated

Today's Extremes

State Highs State Lows

Community

WunderPhotos

Upload Photos

1,774,124 photos uploaded!

WunderBlogs® & News

Nearby

Air Quality

  Air Quality AQ Index Pollutant
Not available.

Snow Depth

Station Depth Elevation

Earthquake Activity

City Distance Mag. Time & Date
Minimum magnitude displayed is 2.5.

Coastal Water Temperatures

Place Temperature

Nearby Weather Stations